sensor_id;sensor_type;location;lat;lon;timestamp;pressure;altitude;pressure_sealevel;temperature;humidity
22206;BME280;11272;50.104;8.754;2023-06-22T00:00:53;100416.13;;;25.72;53.99
22206;BME280;11272;50.104;8.754;2023-06-22T00:03:20;100417.31;;;25.58;54.36
22206;BME280;11272;50.104;8.754;2023-06-22T00:05:47;100418.53;;;25.43;55.31
22206;BME280;11272;50.104;8.754;2023-06-22T00:08:13;100445.78;;;25.32;55.42
22206;BME280;11272;50.104;8.754;2023-06-22T00:10:39;100474.81;;;25.20;55.65
22206;BME280;11272;50.104;8.754;2023-06-22T00:13:06;100494.47;;;25.12;56.19
22206;BME280;11272;50.104;8.754;2023-06-22T00:15:32;100526.84;;;25.04;56.20
22206;BME280;11272;50.104;8.754;2023-06-22T00:17:58;100546.84;;;24.92;56.52
22206;BME280;11272;50.104;8.754;2023-06-22T00:20:25;100558.41;;;24.83;56.78
22206;BME280;11272;50.104;8.754;2023-06-22T00:22:57;100569.00;;;24.75;56.87
22206;BME280;11272;50.104;8.754;2023-06-22T00:25:23;100571.09;;;24.71;56.66
22206;BME280;11272;50.104;8.754;2023-06-22T00:27:49;100577.41;;;24.72;56.79
22206;BME280;11272;50.104;8.754;2023-06-22T00:30:18;100584.31;;;24.76;56.71
22206;BME280;11272;50.104;8.754;2023-06-22T00:32:45;100588.66;;;24.79;56.76
22206;BME280;11272;50.104;8.754;2023-06-22T00:35:13;100599.41;;;24.80;56.72
22206;BME280;11272;50.104;8.754;2023-06-22T00:37:42;100599.28;;;24.82;56.79
22206;BME280;11272;50.104;8.754;2023-06-22T00:40:09;100601.63;;;24.86;56.50
22206;BME280;11272;50.104;8.754;2023-06-22T00:42:37;100610.44;;;24.90;56.73
22206;BME280;11272;50.104;8.754;2023-06-22T00:45:05;100628.38;;;24.92;56.25
22206;BME280;11272;50.104;8.754;2023-06-22T00:47:31;100641.84;;;24.94;56.11
22206;BME280;11272;50.104;8.754;2023-06-22T00:49:59;100659.03;;;24.94;56.26
22206;BME280;11272;50.104;8.754;2023-06-22T00:52:26;100662.72;;;24.93;56.43
22206;BME280;11272;50.104;8.754;2023-06-22T00:54:56;100661.59;;;24.96;56.49
22206;BME280;11272;50.104;8.754;2023-06-22T00:57:24;100665.84;;;25.00;56.28
22206;BME280;11272;50.104;8.754;2023-06-22T00:59:55;100667.22;;;25.05;56.00
22206;BME280;11272;50.104;8.754;2023-06-22T01:02:20;100668.06;;;25.06;55.79
22206;BME280;11272;50.104;8.754;2023-06-22T01:04:46;100669.78;;;25.07;55.81
22206;BME280;11272;50.104;8.754;2023-06-22T01:07:20;100668.94;;;25.06;55.62
22206;BME280;11272;50.104;8.754;2023-06-22T01:09:53;100669.69;;;25.08;55.80
22206;BME280;11272;50.104;8.754;2023-06-22T01:12:26;100675.88;;;25.10;55.52
22206;BME280;11272;50.104;8.754;2023-06-22T01:15:06;100708.63;;;25.09;55.71
22206;BME280;11272;50.104;8.754;2023-06-22T01:17:36;100747.50;;;24.86;56.08
22206;BME280;11272;50.104;8.754;2023-06-22T01:20:10;100766.75;;;24.22;57.20
22206;BME280;11272;50.104;8.754;2023-06-22T01:28:48;100821.34;;;23.01;62.82
22206;BME280;11272;50.104;8.754;2023-06-22T01:31:16;100828.19;;;22.80;65.14
22206;BME280;11272;50.104;8.754;2023-06-22T01:33:45;100801.97;;;22.66;67.25
22206;BME280;11272;50.104;8.754;2023-06-22T01:36:13;100732.47;;;22.52;69.26
22206;BME280;11272;50.104;8.754;2023-06-22T01:38:39;100614.00;;;22.43;71.02
22206;BME280;11272;50.104;8.754;2023-06-22T01:41:05;100536.09;;;22.34;72.74
22206;BME280;11272;50.104;8.754;2023-06-22T01:43:31;100519.75;;;22.23;74.61
22206;BME280;11272;50.104;8.754;2023-06-22T01:45:59;100537.38;;;22.16;76.07
22206;BME280;11272;50.104;8.754;2023-06-22T01:48:25;100514.09;;;22.13;77.20
22206;BME280;11272;50.104;8.754;2023-06-22T01:50:52;100494.81;;;22.05;78.38
22206;BME280;11272;50.104;8.754;2023-06-22T01:53:21;100514.81;;;22.03;79.80
22206;BME280;11272;50.104;8.754;2023-06-22T01:55:46;100547.50;;;22.00;80.54
22206;BME280;11272;50.104;8.754;2023-06-22T01:58:12;100560.63;;;22.06;81.67
22206;BME280;11272;50.104;8.754;2023-06-22T02:00:41;100577.72;;;21.92;82.14
22206;BME280;11272;50.104;8.754;2023-06-22T02:03:14;100589.06;;;21.84;83.54
22206;BME280;11272;50.104;8.754;2023-06-22T02:05:56;100601.78;;;21.82;84.12
22206;BME280;11272;50.104;8.754;2023-06-22T02:08:30;100611.06;;;21.78;84.91
22206;BME280;11272;50.104;8.754;2023-06-22T02:10:59;100607.59;;;21.76;85.73
22206;BME280;11272;50.104;8.754;2023-06-22T02:13:26;100600.44;;;21.75;85.97
22206;BME280;11272;50.104;8.754;2023-06-22T02:15:52;100599.88;;;21.70;86.92
22206;BME280;11272;50.104;8.754;2023-06-22T02:18:18;100603.06;;;21.77;87.82
22206;BME280;11272;50.104;8.754;2023-06-22T02:20:43;100602.16;;;21.91;88.05
22206;BME280;11272;50.104;8.754;2023-06-22T02:23:09;100592.63;;;21.99;88.07
22206;BME280;11272;50.104;8.754;2023-06-22T02:25:35;100586.13;;;22.02;88.37
22206;BME280;11272;50.104;8.754;2023-06-22T02:28:01;100580.50;;;22.05;88.65
22206;BME280;11272;50.104;8.754;2023-06-22T02:30:27;100586.50;;;22.10;89.02
22206;BME280;11272;50.104;8.754;2023-06-22T02:32:52;100583.56;;;22.13;89.45
22206;BME280;11272;50.104;8.754;2023-06-22T02:35:27;100587.81;;;22.17;89.56
22206;BME280;11272;50.104;8.754;2023-06-22T02:38:00;100593.47;;;22.27;89.76
22206;BME280;11272;50.104;8.754;2023-06-22T02:40:27;100595.78;;;22.33;89.67
22206;BME280;11272;50.104;8.754;2023-06-22T02:42:52;100597.31;;;22.37;89.83
22206;BME280;11272;50.104;8.754;2023-06-22T02:45:18;100596.97;;;22.41;89.89
22206;BME280;11272;50.104;8.754;2023-06-22T02:47:44;100595.88;;;22.44;89.74
22206;BME280;11272;50.104;8.754;2023-06-22T02:50:10;100593.72;;;22.36;89.90
22206;BME280;11272;50.104;8.754;2023-06-22T02:52:36;100586.47;;;22.37;89.95
22206;BME280;11272;50.104;8.754;2023-06-22T02:55:02;100593.34;;;22.28;90.02
22206;BME280;11272;50.104;8.754;2023-06-22T02:57:28;100602.56;;;22.25;89.99
22206;BME280;11272;50.104;8.754;2023-06-22T02:59:55;100603.53;;;22.24;89.56
22206;BME280;11272;50.104;8.754;2023-06-22T03:02:20;100594.63;;;22.22;89.82
22206;BME280;11272;50.104;8.754;2023-06-22T03:04:47;100581.97;;;22.23;89.90
22206;BME280;11272;50.104;8.754;2023-06-22T03:07:15;100578.41;;;22.22;90.02
22206;BME280;11272;50.104;8.754;2023-06-22T03:09:42;100576.47;;;22.24;90.43
22206;BME280;11272;50.104;8.754;2023-06-22T03:12:09;100566.09;;;22.31;90.10
22206;BME280;11272;50.104;8.754;2023-06-22T03:14:43;100570.22;;;22.37;89.78
22206;BME280;11272;50.104;8.754;2023-06-22T03:17:09;100560.06;;;22.40;89.62
22206;BME280;11272;50.104;8.754;2023-06-22T03:19:36;100559.00;;;22.43;89.03
22206;BME280;11272;50.104;8.754;2023-06-22T03:22:02;100566.97;;;22.44;88.71
22206;BME280;11272;50.104;8.754;2023-06-22T03:24:28;100577.81;;;22.44;88.44
22206;BME280;11272;50.104;8.754;2023-06-22T03:26:55;100585.06;;;22.44;87.97
22206;BME280;11272;50.104;8.754;2023-06-22T03:29:22;100591.56;;;22.41;87.38
22206;BME280;11272;50.104;8.754;2023-06-22T03:31:49;100590.06;;;22.37;87.13
22206;BME280;11272;50.104;8.754;2023-06-22T03:34:16;100577.47;;;22.36;86.78
22206;BME280;11272;50.104;8.754;2023-06-22T03:36:42;100573.91;;;22.36;86.59
22206;BME280;11272;50.104;8.754;2023-06-22T03:39:10;100567.63;;;22.35;86.27
22206;BME280;11272;50.104;8.754;2023-06-22T03:41:36;100574.78;;;22.36;86.18
22206;BME280;11272;50.104;8.754;2023-06-22T03:44:02;100580.28;;;22.35;85.64
22206;BME280;11272;50.104;8.754;2023-06-22T03:46:28;100581.38;;;22.32;85.44
22206;BME280;11272;50.104;8.754;2023-06-22T03:48:54;100571.63;;;22.30;85.00
22206;BME280;11272;50.104;8.754;2023-06-22T03:51:19;100570.75;;;22.29;84.80
22206;BME280;11272;50.104;8.754;2023-06-22T03:53:45;100568.03;;;22.29;84.48
22206;BME280;11272;50.104;8.754;2023-06-22T03:56:11;100570.41;;;22.34;84.31
22206;BME280;11272;50.104;8.754;2023-06-22T03:58:37;100570.22;;;22.37;83.78
22206;BME280;11272;50.104;8.754;2023-06-22T04:01:08;100580.09;;;22.38;83.54
22206;BME280;11272;50.104;8.754;2023-06-22T04:03:40;100577.25;;;22.39;83.07
22206;BME280;11272;50.104;8.754;2023-06-22T04:06:06;100573.50;;;22.42;82.75
22206;BME280;11272;50.104;8.754;2023-06-22T04:08:32;100573.28;;;22.45;82.46
22206;BME280;11272;50.104;8.754;2023-06-22T04:10:58;100570.47;;;22.46;82.04
22206;BME280;11272;50.104;8.754;2023-06-22T04:13:24;100571.34;;;22.47;81.77
22206;BME280;11272;50.104;8.754;2023-06-22T04:15:50;100575.66;;;22.49;81.49
22206;BME280;11272;50.104;8.754;2023-06-22T04:18:16;100585.53;;;22.50;81.35
22206;BME280;11272;50.104;8.754;2023-06-22T04:20:42;100579.78;;;22.55;81.36
22206;BME280;11272;50.104;8.754;2023-06-22T04:23:10;100581.19;;;22.60;81.22
22206;BME280;11272;50.104;8.754;2023-06-22T04:25:36;100591.28;;;22.58;81.34
22206;BME280;11272;50.104;8.754;2023-06-22T04:28:02;100585.47;;;22.64;81.28
22206;BME280;11272;50.104;8.754;2023-06-22T04:30:29;100581.56;;;22.68;81.01
22206;BME280;11272;50.104;8.754;2023-06-22T04:32:57;100575.84;;;22.73;80.75
22206;BME280;11272;50.104;8.754;2023-06-22T04:35:26;100570.97;;;22.78;80.55
22206;BME280;11272;50.104;8.754;2023-06-22T04:37:55;100578.78;;;22.83;80.43
22206;BME280;11272;50.104;8.754;2023-06-22T04:40:22;100584.00;;;22.86;79.97
22206;BME280;11272;50.104;8.754;2023-06-22T04:42:51;100584.66;;;22.89;80.16
22206;BME280;11272;50.104;8.754;2023-06-22T04:45:19;100578.91;;;22.94;79.72
22206;BME280;11272;50.104;8.754;2023-06-22T04:47:46;100587.78;;;22.96;79.54
22206;BME280;11272;50.104;8.754;2023-06-22T04:50:12;100586.59;;;23.00;79.39
22206;BME280;11272;50.104;8.754;2023-06-22T04:52:38;100583.56;;;23.04;78.98
22206;BME280;11272;50.104;8.754;2023-06-22T04:55:04;100580.09;;;23.02;78.60
22206;BME280;11272;50.104;8.754;2023-06-22T04:57:30;100577.19;;;23.05;78.80
22206;BME280;11272;50.104;8.754;2023-06-22T04:59:58;100576.66;;;23.13;78.73
22206;BME280;11272;50.104;8.754;2023-06-22T05:02:37;100570.03;;;23.17;78.12
22206;BME280;11272;50.104;8.754;2023-06-22T05:05:04;100571.53;;;23.21;77.76
22206;BME280;11272;50.104;8.754;2023-06-22T05:07:34;100573.03;;;23.25;77.53
22206;BME280;11272;50.104;8.754;2023-06-22T05:10:04;100570.44;;;23.24;77.79
22206;BME280;11272;50.104;8.754;2023-06-22T05:12:30;100570.31;;;23.25;77.51
22206;BME280;11272;50.104;8.754;2023-06-22T05:14:57;100563.38;;;23.34;77.36
22206;BME280;11272;50.104;8.754;2023-06-22T05:17:23;100568.03;;;23.44;77.21
22206;BME280;11272;50.104;8.754;2023-06-22T05:19:49;100567.72;;;23.49;77.04
22206;BME280;11272;50.104;8.754;2023-06-22T05:22:15;100566.41;;;23.55;76.63
22206;BME280;11272;50.104;8.754;2023-06-22T05:24:42;100571.59;;;23.58;76.33
22206;BME280;11272;50.104;8.754;2023-06-22T05:27:09;100569.66;;;23.60;76.00
22206;BME280;11272;50.104;8.754;2023-06-22T05:29:36;100559.78;;;23.59;75.72
22206;BME280;11272;50.104;8.754;2023-06-22T05:32:02;100567.69;;;23.62;75.85
22206;BME280;11272;50.104;8.754;2023-06-22T05:34:28;100565.72;;;23.64;75.43
22206;BME280;11272;50.104;8.754;2023-06-22T05:36:54;100551.19;;;23.65;75.27
22206;BME280;11272;50.104;8.754;2023-06-22T05:39:20;100560.06;;;23.67;75.17
22206;BME280;11272;50.104;8.754;2023-06-22T05:41:46;100560.38;;;23.75;75.10
22206;BME280;11272;50.104;8.754;2023-06-22T05:44:12;100554.59;;;23.92;74.73
22206;BME280;11272;50.104;8.754;2023-06-22T05:46:42;100551.56;;;24.08;74.49
22206;BME280;11272;50.104;8.754;2023-06-22T05:49:11;100547.72;;;24.23;74.39
22206;BME280;11272;50.104;8.754;2023-06-22T05:51:37;100545.47;;;24.41;74.02
22206;BME280;11272;50.104;8.754;2023-06-22T05:54:03;100555.66;;;24.61;73.41
22206;BME280;11272;50.104;8.754;2023-06-22T05:56:28;100549.88;;;24.77;73.00
22206;BME280;11272;50.104;8.754;2023-06-22T05:58:54;100553.25;;;24.91;72.40
22206;BME280;11272;50.104;8.754;2023-06-22T06:01:21;100549.22;;;25.08;71.88
22206;BME280;11272;50.104;8.754;2023-06-22T06:03:47;100543.41;;;25.24;71.04
22206;BME280;11272;50.104;8.754;2023-06-22T06:06:15;100540.31;;;25.39;70.25
22206;BME280;11272;50.104;8.754;2023-06-22T06:08:41;100541.69;;;25.56;70.07
22206;BME280;11272;50.104;8.754;2023-06-22T06:11:07;100551.31;;;25.71;69.14
22206;BME280;11272;50.104;8.754;2023-06-22T06:13:33;100543.72;;;25.86;68.29
22206;BME280;11272;50.104;8.754;2023-06-22T06:16:00;100550.63;;;26.01;68.11
22206;BME280;11272;50.104;8.754;2023-06-22T06:18:26;100546.72;;;26.15;67.51
22206;BME280;11272;50.104;8.754;2023-06-22T06:20:52;100541.00;;;26.29;66.87
22206;BME280;11272;50.104;8.754;2023-06-22T06:23:18;100530.16;;;26.50;66.25
22206;BME280;11272;50.104;8.754;2023-06-22T06:25:44;100526.69;;;26.68;66.08
22206;BME280;11272;50.104;8.754;2023-06-22T06:28:10;100522.00;;;26.91;65.14
22206;BME280;11272;50.104;8.754;2023-06-22T06:30:36;100522.19;;;27.09;64.43
22206;BME280;11272;50.104;8.754;2023-06-22T06:33:03;100519.47;;;27.09;64.08
22206;BME280;11272;50.104;8.754;2023-06-22T06:35:34;100516.72;;;27.30;63.69
22206;BME280;11272;50.104;8.754;2023-06-22T06:38:01;100520.84;;;27.54;62.96
22206;BME280;11272;50.104;8.754;2023-06-22T06:40:30;100515.72;;;27.80;62.20
22206;BME280;11272;50.104;8.754;2023-06-22T06:42:56;100523.53;;;28.04;61.43
22206;BME280;11272;50.104;8.754;2023-06-22T06:45:24;100512.34;;;28.26;60.86
22206;BME280;11272;50.104;8.754;2023-06-22T06:47:53;100511.19;;;28.48;60.26
22206;BME280;11272;50.104;8.754;2023-06-22T06:50:19;100514.03;;;28.66;59.01
22206;BME280;11272;50.104;8.754;2023-06-22T06:52:46;100519.78;;;28.82;58.88
22206;BME280;11272;50.104;8.754;2023-06-22T06:55:13;100517.16;;;29.00;58.06
22206;BME280;11272;50.104;8.754;2023-06-22T06:57:40;100506.28;;;29.17;57.45
22206;BME280;11272;50.104;8.754;2023-06-22T07:00:08;100499.75;;;29.38;56.91
22206;BME280;11272;50.104;8.754;2023-06-22T07:02:44;100496.59;;;29.60;56.54
22206;BME280;11272;50.104;8.754;2023-06-22T07:05:11;100499.22;;;29.79;55.94
22206;BME280;11272;50.104;8.754;2023-06-22T07:07:38;100497.06;;;30.00;55.31
22206;BME280;11272;50.104;8.754;2023-06-22T07:10:07;100503.63;;;30.25;54.26
22206;BME280;11272;50.104;8.754;2023-06-22T07:12:33;100506.47;;;30.51;53.95
22206;BME280;11272;50.104;8.754;2023-06-22T07:15:09;100491.75;;;30.78;53.25
22206;BME280;11272;50.104;8.754;2023-06-22T07:17:36;100497.19;;;30.95;52.91
22206;BME280;11272;50.104;8.754;2023-06-22T07:20:03;100493.31;;;31.06;51.92
22206;BME280;11272;50.104;8.754;2023-06-22T07:22:36;100489.72;;;31.06;51.11
22206;BME280;11272;50.104;8.754;2023-06-22T07:25:02;100482.19;;;31.08;51.15
22206;BME280;11272;50.104;8.754;2023-06-22T07:28:01;100474.72;;;31.26;50.79
22206;BME280;11272;50.104;8.754;2023-06-22T07:30:28;100476.66;;;31.33;50.46
22206;BME280;11272;50.104;8.754;2023-06-22T07:32:54;100482.34;;;31.40;50.59
22206;BME280;11272;50.104;8.754;2023-06-22T07:35:20;100482.00;;;31.35;50.41
22206;BME280;11272;50.104;8.754;2023-06-22T07:37:46;100484.38;;;31.38;50.33
22206;BME280;11272;50.104;8.754;2023-06-22T07:40:12;100478.44;;;31.51;49.78
22206;BME280;11272;50.104;8.754;2023-06-22T07:42:39;100474.22;;;31.64;49.65
22206;BME280;11272;50.104;8.754;2023-06-22T07:45:05;100469.81;;;31.88;49.23
22206;BME280;11272;50.104;8.754;2023-06-22T07:47:34;100460.06;;;32.17;48.79
22206;BME280;11272;50.104;8.754;2023-06-22T07:50:02;100459.38;;;32.40;48.29
22206;BME280;11272;50.104;8.754;2023-06-22T07:52:31;100457.47;;;32.65;47.86
22206;BME280;11272;50.104;8.754;2023-06-22T07:54:57;100460.38;;;32.87;47.19
22206;BME280;11272;50.104;8.754;2023-06-22T07:57:23;100452.53;;;33.15;46.71
22206;BME280;11272;50.104;8.754;2023-06-22T07:59:58;100450.03;;;33.45;45.92
22206;BME280;11272;50.104;8.754;2023-06-22T08:02:24;100457.22;;;33.54;45.22
22206;BME280;11272;50.104;8.754;2023-06-22T08:04:50;100462.13;;;33.74;44.85
22206;BME280;11272;50.104;8.754;2023-06-22T08:07:16;100454.19;;;34.02;44.48
22206;BME280;11272;50.104;8.754;2023-06-22T08:09:47;100445.19;;;34.31;43.96
22206;BME280;11272;50.104;8.754;2023-06-22T08:12:13;100447.50;;;34.57;43.11
22206;BME280;11272;50.104;8.754;2023-06-22T08:14:41;100453.00;;;34.80;42.56
22206;BME280;11272;50.104;8.754;2023-06-22T08:17:07;100448.28;;;34.88;42.42
22206;BME280;11272;50.104;8.754;2023-06-22T08:19:33;100453.03;;;35.09;41.95
22206;BME280;11272;50.104;8.754;2023-06-22T08:22:00;100442.69;;;35.26;41.22
22206;BME280;11272;50.104;8.754;2023-06-22T08:24:26;100445.59;;;35.39;41.28
22206;BME280;11272;50.104;8.754;2023-06-22T08:26:55;100439.25;;;35.60;41.00
22206;BME280;11272;50.104;8.754;2023-06-22T08:29:21;100428.06;;;35.82;40.30
22206;BME280;11272;50.104;8.754;2023-06-22T08:31:47;100429.38;;;36.08;39.92
22206;BME280;11272;50.104;8.754;2023-06-22T08:34:13;100428.50;;;36.22;39.78
22206;BME280;11272;50.104;8.754;2023-06-22T08:36:39;100422.69;;;36.38;39.33
22206;BME280;11272;50.104;8.754;2023-06-22T08:39:10;100425.41;;;36.59;38.60
22206;BME280;11272;50.104;8.754;2023-06-22T08:41:36;100412.75;;;36.78;38.20
22206;BME280;11272;50.104;8.754;2023-06-22T08:44:01;100413.19;;;36.82;37.95
22206;BME280;11272;50.104;8.754;2023-06-22T08:46:28;100409.00;;;36.86;37.71
22206;BME280;11272;50.104;8.754;2023-06-22T08:48:59;100407.56;;;37.03;37.24
22206;BME280;11272;50.104;8.754;2023-06-22T08:51:25;100400.91;;;37.25;37.17
22206;BME280;11272;50.104;8.754;2023-06-22T08:53:51;100401.00;;;37.45;36.96
22206;BME280;11272;50.104;8.754;2023-06-22T08:56:21;100395.53;;;37.65;36.31
22206;BME280;11272;50.104;8.754;2023-06-22T08:58:47;100395.31;;;37.73;36.39
22206;BME280;11272;50.104;8.754;2023-06-22T09:01:13;100389.75;;;37.73;35.83
22206;BME280;11272;50.104;8.754;2023-06-22T09:03:41;100389.38;;;37.76;35.73
22206;BME280;11272;50.104;8.754;2023-06-22T09:06:07;100390.66;;;38.00;35.60
22206;BME280;11272;50.104;8.754;2023-06-22T09:08:35;100380.03;;;38.16;35.56
22206;BME280;11272;50.104;8.754;2023-06-22T09:11:01;100389.41;;;38.42;35.12
22206;BME280;11272;50.104;8.754;2023-06-22T09:13:30;100384.75;;;38.62;34.48
22206;BME280;11272;50.104;8.754;2023-06-22T09:15:56;100388.09;;;38.84;34.04
22206;BME280;11272;50.104;8.754;2023-06-22T09:18:22;100381.25;;;38.86;33.92
22206;BME280;11272;50.104;8.754;2023-06-22T09:20:48;100382.56;;;38.70;33.75
22206;BME280;11272;50.104;8.754;2023-06-22T09:23:13;100383.44;;;38.64;33.97
22206;BME280;11272;50.104;8.754;2023-06-22T09:25:40;100371.00;;;38.93;33.74
22206;BME280;11272;50.104;8.754;2023-06-22T09:28:06;100372.16;;;39.24;33.21
22206;BME280;11272;50.104;8.754;2023-06-22T09:30:32;100370.41;;;39.42;32.65
22206;BME280;11272;50.104;8.754;2023-06-22T09:32:57;100363.53;;;39.45;32.60
22206;BME280;11272;50.104;8.754;2023-06-22T09:35:23;100361.09;;;39.55;32.59
22206;BME280;11272;50.104;8.754;2023-06-22T09:37:48;100358.22;;;39.75;31.95
22206;BME280;11272;50.104;8.754;2023-06-22T09:40:14;100351.94;;;39.86;31.37
22206;BME280;11272;50.104;8.754;2023-06-22T09:42:42;100353.66;;;39.49;30.72
22206;BME280;11272;50.104;8.754;2023-06-22T09:45:08;100338.41;;;39.13;30.54
22206;BME280;11272;50.104;8.754;2023-06-22T09:47:34;100341.41;;;39.12;30.55
22206;BME280;11272;50.104;8.754;2023-06-22T09:50:00;100328.44;;;38.99;30.61
22206;BME280;11272;50.104;8.754;2023-06-22T09:52:25;100333.38;;;38.84;30.28
22206;BME280;11272;50.104;8.754;2023-06-22T09:54:51;100341.06;;;38.89;30.42
22206;BME280;11272;50.104;8.754;2023-06-22T09:57:17;100328.66;;;38.85;30.37
22206;BME280;11272;50.104;8.754;2023-06-22T09:59:43;100329.09;;;38.95;30.36
22206;BME280;11272;50.104;8.754;2023-06-22T10:02:08;100324.53;;;39.13;29.91
22206;BME280;11272;50.104;8.754;2023-06-22T10:04:34;100336.38;;;38.83;29.61
22206;BME280;11272;50.104;8.754;2023-06-22T10:07:00;100322.81;;;38.28;29.97
22206;BME280;11272;50.104;8.754;2023-06-22T10:09:26;100326.78;;;37.53;30.82
22206;BME280;11272;50.104;8.754;2023-06-22T10:11:52;100324.41;;;37.50;31.26
22206;BME280;11272;50.104;8.754;2023-06-22T10:14:17;100320.44;;;37.73;31.27
22206;BME280;11272;50.104;8.754;2023-06-22T10:16:43;100322.59;;;38.10;30.56
22206;BME280;11272;50.104;8.754;2023-06-22T10:19:09;100314.25;;;38.43;30.24
22206;BME280;11272;50.104;8.754;2023-06-22T10:21:34;100311.22;;;38.58;29.94
22206;BME280;11272;50.104;8.754;2023-06-22T10:24:01;100299.75;;;38.41;29.81
22206;BME280;11272;50.104;8.754;2023-06-22T10:26:32;100294.19;;;38.41;29.76
22206;BME280;11272;50.104;8.754;2023-06-22T10:28:59;100281.56;;;38.39;29.69
22206;BME280;11272;50.104;8.754;2023-06-22T10:31:25;100279.63;;;38.59;29.71
22206;BME280;11272;50.104;8.754;2023-06-22T10:33:51;100269.03;;;38.16;29.63
22206;BME280;11272;50.104;8.754;2023-06-22T10:36:17;100273.31;;;37.86;30.15
22206;BME280;11272;50.104;8.754;2023-06-22T10:38:42;100266.91;;;37.92;30.03
22206;BME280;11272;50.104;8.754;2023-06-22T10:41:08;100262.41;;;38.04;29.79
22206;BME280;11272;50.104;8.754;2023-06-22T10:43:33;100262.22;;;38.12;30.38
22206;BME280;11272;50.104;8.754;2023-06-22T10:45:59;100247.16;;;38.53;29.72
22206;BME280;11272;50.104;8.754;2023-06-22T10:48:24;100233.16;;;38.92;29.54
22206;BME280;11272;50.104;8.754;2023-06-22T10:50:50;100228.84;;;39.59;29.02
22206;BME280;11272;50.104;8.754;2023-06-22T10:53:16;100225.09;;;39.78;28.57
22206;BME280;11272;50.104;8.754;2023-06-22T10:55:41;100225.16;;;39.65;28.11
22206;BME280;11272;50.104;8.754;2023-06-22T10:58:07;100223.56;;;38.75;28.58
22206;BME280;11272;50.104;8.754;2023-06-22T11:00:32;100227.19;;;38.24;29.72
22206;BME280;11272;50.104;8.754;2023-06-22T11:02:58;100210.91;;;38.34;29.58
22206;BME280;11272;50.104;8.754;2023-06-22T11:05:24;100210.34;;;37.93;29.98
22206;BME280;11272;50.104;8.754;2023-06-22T11:07:49;100196.78;;;38.36;29.79
22206;BME280;11272;50.104;8.754;2023-06-22T11:10:15;100194.25;;;38.92;29.24
22206;BME280;11272;50.104;8.754;2023-06-22T11:12:41;100189.56;;;39.49;28.67
22206;BME280;11272;50.104;8.754;2023-06-22T11:15:08;100188.59;;;39.86;28.56
22206;BME280;11272;50.104;8.754;2023-06-22T11:17:37;100190.94;;;40.08;28.25
22206;BME280;11272;50.104;8.754;2023-06-22T11:20:06;100169.69;;;40.13;28.15
22206;BME280;11272;50.104;8.754;2023-06-22T11:22:47;100162.03;;;40.45;28.10
22206;BME280;11272;50.104;8.754;2023-06-22T11:25:15;100160.31;;;40.32;27.79
22206;BME280;11272;50.104;8.754;2023-06-22T11:27:41;100163.03;;;40.14;28.02
22206;BME280;11272;50.104;8.754;2023-06-22T11:30:08;100151.22;;;40.01;28.35
22206;BME280;11272;50.104;8.754;2023-06-22T11:32:34;100146.72;;;39.81;28.58
22206;BME280;11272;50.104;8.754;2023-06-22T11:35:00;100147.66;;;39.93;27.97
22206;BME280;11272;50.104;8.754;2023-06-22T11:37:26;100140.84;;;40.08;28.05
22206;BME280;11272;50.104;8.754;2023-06-22T11:39:52;100142.34;;;40.28;28.06
22206;BME280;11272;50.104;8.754;2023-06-22T11:42:20;100149.28;;;40.19;27.50
22206;BME280;11272;50.104;8.754;2023-06-22T11:44:46;100134.66;;;39.87;27.57
22206;BME280;11272;50.104;8.754;2023-06-22T11:47:11;100132.94;;;39.68;28.39
22206;BME280;11272;50.104;8.754;2023-06-22T11:49:37;100128.59;;;39.23;28.44
22206;BME280;11272;50.104;8.754;2023-06-22T11:52:05;100128.16;;;39.26;28.88
22206;BME280;11272;50.104;8.754;2023-06-22T11:54:31;100122.50;;;39.39;28.56
22206;BME280;11272;50.104;8.754;2023-06-22T11:56:57;100122.50;;;39.39;28.61
22206;BME280;11272;50.104;8.754;2023-06-22T11:59:22;100117.78;;;39.64;28.69
22206;BME280;11272;50.104;8.754;2023-06-22T12:01:48;100105.63;;;40.20;28.26
22206;BME280;11272;50.104;8.754;2023-06-22T12:04:15;100112.41;;;40.24;27.83
22206;BME280;11272;50.104;8.754;2023-06-22T12:06:41;100110.25;;;39.65;28.47
22206;BME280;11272;50.104;8.754;2023-06-22T12:09:08;100108.22;;;39.29;29.28
22206;BME280;11272;50.104;8.754;2023-06-22T12:11:33;100107.22;;;38.98;28.89
22206;BME280;11272;50.104;8.754;2023-06-22T12:14:00;100115.31;;;38.17;29.97
22206;BME280;11272;50.104;8.754;2023-06-22T12:16:30;100102.44;;;37.72;30.16
22206;BME280;11272;50.104;8.754;2023-06-22T12:18:56;100100.75;;;37.38;30.81
22206;BME280;11272;50.104;8.754;2023-06-22T12:21:21;100096.72;;;37.34;31.20
22206;BME280;11272;50.104;8.754;2023-06-22T12:23:47;100099.88;;;37.64;31.16
22206;BME280;11272;50.104;8.754;2023-06-22T12:26:12;100105.19;;;37.78;30.89
22206;BME280;11272;50.104;8.754;2023-06-22T12:28:38;100107.22;;;38.09;30.70
22206;BME280;11272;50.104;8.754;2023-06-22T12:31:04;100114.50;;;38.10;30.25
22206;BME280;11272;50.104;8.754;2023-06-22T12:33:29;100088.53;;;37.85;30.50
22206;BME280;11272;50.104;8.754;2023-06-22T12:35:56;100090.16;;;38.12;30.43
22206;BME280;11272;50.104;8.754;2023-06-22T12:38:22;100098.88;;;38.67;29.57
22206;BME280;11272;50.104;8.754;2023-06-22T12:40:49;100090.59;;;38.54;29.55
22206;BME280;11272;50.104;8.754;2023-06-22T12:43:15;100091.38;;;38.23;29.76
22206;BME280;11272;50.104;8.754;2023-06-22T12:45:40;100088.72;;;38.03;30.08
22206;BME280;11272;50.104;8.754;2023-06-22T12:48:06;100085.81;;;37.65;30.51
22206;BME280;11272;50.104;8.754;2023-06-22T12:50:32;100107.34;;;37.50;30.81
22206;BME280;11272;50.104;8.754;2023-06-22T12:52:57;100089.22;;;37.01;31.21
22206;BME280;11272;50.104;8.754;2023-06-22T12:55:23;100086.84;;;36.72;32.06